Airfield :







YOU CAN JOIN US ON...

 
LOGIN :

Register | Disclaimer

   EN    FR    IT 

 









Legend :    VFR   Marginal VFR   IFR   Intensive IFR   Very Intensive IFR
Visi :
Ceiling :
>= 8 km
>= 3000ft
5 to 8 km
1000 to 3000 ft
1500m to 5 km
500 to 1000 ft
800 to 1500m
200 to 500 ft
< 800m
< 200 ft
Symbols :   Thunderstorms  Fog  Heavy snow  Heavy precipitations  Wind > 20 kt







- Airport Elevation : 241 ft
- IATA code : CEF


KCEF - Westover ARB/Metropolitan

CURRENT METAR :
  • 230556Z AUTO 02010KT 10SM FEW016 OVC043 14/12 A2993 RMK AO2 DZB32E44 SLP141 P0000 60003 T01410120 10142 20130 57013

EXPIRED METARs :
  • 230544Z AUTO 02009KT 10SM FEW016 OVC047 14/12 A2993 RMK AO2 DZB32E44 SLP141
  • 230532Z AUTO 02009KT 10SM -DZ FEW018 BKN048 OVC075 14/12 A2994 RMK AO2 DZB32 SLP144
  • 230456Z AUTO 01008KT 10SM OVC080 14/12 A2995 RMK AO2 DZB0359E12 SLP148 P0000 T01400120 402090090
  • 230412Z AUTO 02008KT 10SM SCT022 OVC070 14/12 A2996 RMK AO2 DZB0359E12 SLP151
  • 230359Z AUTO 01010KT 10SM -DZ BKN022 OVC070 14/12 A2996 RMK AO2 DZB59 CIG 021 RWY23 SLP151
  • 230356Z AUTO 02009KT 10SM BKN022 OVC075 14/12 A2996 RMK AO2 RAE0256DZB18E27 CIG 021 RWY23 SLP151 P0000 T01400122
  • 230327Z AUTO 01008KT 10SM FEW022 OVC075 14/13 A2997 RMK AO2 RAE0256DZB18E27 SLP154
  • 230318Z AUTO 01009KT 10SM -DZ SCT020 OVC070 14/13 A2997 RMK AO2 RAE0256DZB18 SLP154
  • 230312Z AUTO 02010KT 10SM SCT020 OVC075 14/13 A2997 RMK AO2 RAE0256 SLP154

TAF TAF KCEF
Valid from the 23 at 02:00 until the 24 at 08:00 UTC


230200Z 2302/2408 VRB06KT 9000 -RA BR BKN015 OVC022 QNH2996INS
BECMG 2305/2306 VRB06KT 9999 NSW BKN015 OVC020 QNH2995INS
TEMPO 2306/2311 SCT015 OVC020
BECMG 2311/2312 35009KT 9999 BKN020 QNH2991INS
BECMG 2317/2318 16006KT 9999 BKN035 QNH2980INS
BECMG 2400/2401 18012G18KT 9999 BKN007 OVC012 QNH2971INS TX20/2318Z TN11/2402Z LAST NO AMDS AFT 2303 NEXT 2310
KZBW FIR / North America



MET'MAP, your aeronautical weather chart ! - Copyright ORBIFLY December 2007 - Disclaimer

ORBIFLY MET'MAP TEAM :

Programming & Development : Alexandra Zaïnal
Concept & Development : Baudouin d'Aumeries
Co-Development & Prog : Marc-Olivier Méhu
Technical & hardware support : Manuel Goepfert

Contact : metmap@orbifly.com




SOURCES & CREDITS :

   NOAA